Terminal Aerodrome Forecast
Issued by NWS

Home | Current Version | Previous Version | Text Only | Print | Product List | Glossary On
Versions: 1 2 3 4 5 6 7 8 9 10 11 12 13 14 15 16 17 18 19 20 21 22 23 24 25 26 27 28 29 30 31 32 33 34 35 36 37 38 39 40 41 42 43
000
FTUS46 KEKA 201900 AAA
TAFACV
TAF AMD
KACV 201921Z 2019/2118 32006KT 4SM HZ BKN009
      TEMPO 2020/2021 6SM HZ SCT009
     FM202100 32009KT P6SM SCT009 SCT250
      TEMPO 2023/2101 BKN004
     FM210300 06003KT 5SM BR BKN004=

USA.gov is the U.S. government's official web portal to all federal, state and local government web resources and services.